»·PEaware :: N2494V KBOI-KSLC

N2494V :: KBOI-KSLC

FLIGHT INFORMATION

Flight Status: Arrived
Operator: Privately registered:
United States
More flights under this callsign
Pilot: Sally S. (18014)
Aircraft: Unknown
(DA62)
More flights by this aircraft type
Origin: KBOI Boise Air Terminal/Gowen
United States
Destination: KSLC Salt Lake City Intl
United States
More flights between these airports :: More routes between these airports
Route: TWF EMONT
File this flight plan on PilotEdge
Remarks:
Altitude:
(Current/Filed)
11,500ft
Speed:
(Current/Filed)
165kts
Departed: 16-May-18 07:51 AM
Arrived: 16-May-18 09:38 AM
Distance/Time
Traveled:
253nm/1:47
Distance/Time
To Go:
Arrived

Flight Plot

Page will automatically refresh every two minutes.

Flight plan parsing failed; only flown route is shown


Map Options




Map Legend


Flown Route
Filed Route
Departure Airport
Arrival Airport
Navaid (VOR, NDB)
Fix

Horizontal Profiles

Position Reports

Time Latitude Longitude Heading Altitude Ground
Speed
16-May-18 07:39 43.568796 -116.226093 2 2875ft 0kts
16-May-18 07:40 43.568796 -116.226093 2 2875ft 0kts
16-May-18 07:41 43.568796 -116.226093 2 2875ft 0kts
16-May-18 07:42 43.568796 -116.226093 2 2875ft 0kts
16-May-18 07:43 43.568796 -116.226093 2 2875ft 0kts
16-May-18 07:44 43.568796 -116.226093 2 2875ft 0kts
16-May-18 07:45 43.568796 -116.226093 2 2875ft 0kts
16-May-18 07:46 43.568796 -116.226093 2 2875ft 0kts
16-May-18 07:47 43.568860 -116.226578 248 2875ft 9kts
16-May-18 07:48 43.569813 -116.232107 297 2875ft 21kts
16-May-18 07:49 43.570814 -116.235922 153 2875ft 0kts
16-May-18 07:50 43.570814 -116.235922 153 2875ft 0kts
16-May-18 07:51 43.568972 -116.233227 117 2875ft 61kts
16-May-18 07:52 43.561922 -116.199650 106 3909ft 95kts
16-May-18 07:53 43.551112 -116.168492 132 5303ft 93kts
16-May-18 07:54 43.534584 -116.141540 132 6592ft 102kts
16-May-18 07:55 43.515537 -116.110798 132 7686ft 109kts
16-May-18 07:56 43.496243 -116.079745 132 8651ft 111kts
16-May-18 07:57 43.476628 -116.048208 132 9606ft 113kts
16-May-18 07:58 43.456511 -116.015903 132 10556ft 115kts
16-May-18 07:59 43.436320 -115.983520 132 11449ft 119kts
16-May-18 08:00 43.411372 -115.943548 131 11501ft 160kts
16-May-18 08:01 43.382491 -115.897271 131 11498ft 170kts
16-May-18 08:02 43.352539 -115.849396 131 11498ft 168kts
16-May-18 08:03 43.322965 -115.802194 132 11499ft 166kts
16-May-18 08:04 43.293135 -115.754700 132 11499ft 166kts
16-May-18 08:05 43.263081 -115.706923 131 11499ft 166kts
16-May-18 08:06 43.233087 -115.659322 131 11499ft 166kts
16-May-18 08:07 43.203112 -115.611834 132 11498ft 166kts
16-May-18 08:08 43.173111 -115.564383 132 11498ft 166kts
16-May-18 08:09 43.143124 -115.517031 131 11498ft 166kts
16-May-18 08:10 43.113106 -115.469706 132 11498ft 166kts
16-May-18 08:11 43.083129 -115.422522 131 11498ft 166kts
16-May-18 08:12 43.053264 -115.375593 131 11498ft 166kts
16-May-18 08:13 43.023967 -115.329630 132 11498ft 166kts
16-May-18 08:14 42.994101 -115.282847 132 11498ft 167kts
16-May-18 08:15 42.963850 -115.235545 132 11498ft 168kts
16-May-18 08:16 42.933403 -115.188004 133 11500ft 169kts
16-May-18 08:17 42.902791 -115.140259 133 11510ft 169kts
16-May-18 08:18 42.872849 -115.093645 134 11528ft 169kts
16-May-18 08:19 42.842058 -115.045796 135 11543ft 169kts
16-May-18 08:20 42.810895 -114.997458 136 11558ft 171kts
16-May-18 08:21 42.779691 -114.949144 137 11564ft 171kts
16-May-18 08:22 42.748288 -114.900644 137 11564ft 171kts
16-May-18 08:23 42.717029 -114.852407 137 11564ft 171kts
16-May-18 08:24 42.685570 -114.803952 137 11564ft 171kts
16-May-18 08:25 42.654525 -114.756184 137 11557ft 168kts
16-May-18 08:26 42.623640 -114.708730 137 11554ft 168kts
16-May-18 08:27 42.592738 -114.661346 137 11550ft 168kts
16-May-18 08:28 42.561710 -114.613849 137 11547ft 169kts
16-May-18 08:29 42.530632 -114.566356 137 11546ft 169kts
16-May-18 08:30 42.499439 -114.518758 137 11546ft 169kts
16-May-18 08:31 42.468347 -114.471698 137 11546ft 169kts
16-May-18 08:32 42.437080 -114.424960 137 11546ft 169kts
16-May-18 08:33 42.405880 -114.378399 137 11546ft 169kts
16-May-18 08:34 42.377698 -114.336408 138 11544ft 168kts
16-May-18 08:35 42.346432 -114.289881 138 11544ft 168kts
16-May-18 08:36 42.315015 -114.243213 138 11544ft 168kts
16-May-18 08:37 42.283536 -114.196522 138 11545ft 168kts
16-May-18 08:38 42.252037 -114.149882 138 11547ft 168kts
16-May-18 08:39 42.220642 -114.103468 138 11548ft 168kts
16-May-18 08:40 42.189118 -114.056947 138 11550ft 168kts
16-May-18 08:41 42.157581 -114.010473 138 11552ft 168kts
16-May-18 08:42 42.126062 -113.964099 138 11552ft 168kts
16-May-18 08:43 42.094457 -113.917674 138 11552ft 168kts
16-May-18 08:44 42.062924 -113.871425 138 11552ft 168kts
16-May-18 08:45 42.031316 -113.825141 138 11552ft 168kts
16-May-18 08:46 41.999668 -113.778873 138 11552ft 168kts
16-May-18 08:47 41.968026 -113.732694 138 11552ft 168kts
16-May-18 08:48 41.940709 -113.692879 138 11552ft 168kts
16-May-18 08:49 41.910171 -113.648448 138 11552ft 168kts
16-May-18 08:50 41.881480 -113.606767 138 11557ft 169kts
16-May-18 08:51 41.849769 -113.560786 138 11501ft 170kts
16-May-18 08:52 41.818713 -113.515484 136 11502ft 170kts
16-May-18 08:53 41.787788 -113.467962 137 11502ft 169kts
16-May-18 08:54 41.756874 -113.420679 136 11502ft 169kts
16-May-18 08:55 41.726192 -113.373859 137 11483ft 170kts
16-May-18 08:56 41.697267 -113.329793 137 11481ft 169kts
16-May-18 08:57 41.667293 -113.284197 137 11481ft 169kts
16-May-18 08:58 41.636532 -113.237471 137 11485ft 169kts
16-May-18 08:59 41.605720 -113.190725 137 11490ft 169kts
16-May-18 09:00 41.575236 -113.144569 137 11497ft 170kts
16-May-18 09:01 41.544001 -113.097365 137 11502ft 171kts
16-May-18 09:02 41.512487 -113.049812 137 11507ft 171kts
16-May-18 09:03 41.480928 -113.002260 137 11508ft 171kts
16-May-18 09:04 41.449456 -112.954926 137 11508ft 171kts
16-May-18 09:05 41.418002 -112.907688 137 11507ft 170kts
16-May-18 09:06 41.386679 -112.860704 136 11507ft 169kts
16-May-18 09:07 41.355541 -112.814080 136 11507ft 168kts
16-May-18 09:08 41.324424 -112.767536 136 11507ft 168kts
16-May-18 09:09 41.293587 -112.721512 136 11505ft 165kts
16-May-18 09:10 41.262911 -112.675800 136 11372ft 171kts
16-May-18 09:11 41.230966 -112.628264 135 10886ft 179kts
16-May-18 09:12 41.197739 -112.578861 135 10381ft 180kts
16-May-18 09:13 41.164340 -112.529324 135 9873ft 180kts
16-May-18 09:14 41.131134 -112.480138 135 9403ft 178kts
16-May-18 09:15 41.098326 -112.431843 135 8991ft 176kts
16-May-18 09:16 41.063540 -112.397784 200 8535ft 153kts
16-May-18 09:17 41.026029 -112.418579 190 8074ft 148kts
16-May-18 09:18 40.983835 -112.430865 190 7624ft 166kts
16-May-18 09:19 40.938864 -112.444288 190 7478ft 162kts
16-May-18 09:20 40.897838 -112.456574 190 7480ft 160kts
16-May-18 09:21 40.855178 -112.469353 190 7481ft 160kts
16-May-18 09:22 40.812346 -112.482175 190 7481ft 159kts
16-May-18 09:23 40.769642 -112.494950 190 7480ft 160kts
16-May-18 09:24 40.726430 -112.507863 190 7481ft 159kts
16-May-18 09:25 40.683649 -112.518562 162 7479ft 158kts
16-May-18 09:26 40.672225 -112.466089 76 7487ft 164kts
16-May-18 09:27 40.683940 -112.409134 90 7481ft 162kts
16-May-18 09:28 40.686449 -112.349988 77 7483ft 164kts
16-May-18 09:29 40.698370 -112.294332 76 7535ft 163kts
16-May-18 09:30 40.711478 -112.247583 69 7537ft 165kts
16-May-18 09:31 40.729602 -112.191598 69 7536ft 167kts
16-May-18 09:32 40.747770 -112.135778 69 7536ft 167kts
16-May-18 09:33 40.766434 -112.078044 70 7177ft 183kts
16-May-18 09:34 40.782448 -112.016645 75 6219ft 176kts
16-May-18 09:35 40.787265 -111.957040 91 5144ft 155kts
16-May-18 09:36 40.816500 -111.949628 277 4848ft 123kts
16-May-18 09:37 40.793897 -111.962016 177 4257ft 79kts
16-May-18 09:38 40.786376 -111.961092 136 4231ft 0kts
16-May-18 09:39 40.783960 -111.959968 175 4231ft 19kts
16-May-18 09:40 40.782805 -111.958768 33 4231ft 0kts
16-May-18 09:41 40.782805 -111.958768 33 4231ft 0kts

Navigation Log

Ident Type
Flight plan parsing failed, navigation log unavailable